sensor_id;sensor_type;location;lat;lon;timestamp;P1;durP1;ratioP1;P2;durP2;ratioP2
22837;SDS011;11585;51.450;-0.240;2023-11-19T00:00:19;15.30;;;14.60;;
22837;SDS011;11585;51.450;-0.240;2023-11-19T00:02:45;14.77;;;14.07;;
22837;SDS011;11585;51.450;-0.240;2023-11-19T00:07:56;15.25;;;14.55;;
22837;SDS011;11585;51.450;-0.240;2023-11-19T00:10:22;16.05;;;15.35;;
22837;SDS011;11585;51.450;-0.240;2023-11-19T00:12:48;16.00;;;15.30;;
22837;SDS011;11585;51.450;-0.240;2023-11-19T00:15:14;16.00;;;15.30;;
22837;SDS011;11585;51.450;-0.240;2023-11-19T00:17:44;15.70;;;15.00;;
22837;SDS011;11585;51.450;-0.240;2023-11-19T00:20:14;16.08;;;15.38;;
22837;SDS011;11585;51.450;-0.240;2023-11-19T00:22:41;16.08;;;15.38;;
22837;SDS011;11585;51.450;-0.240;2023-11-19T00:27:51;16.67;;;15.88;;
22837;SDS011;11585;51.450;-0.240;2023-11-19T00:30:18;16.08;;;15.35;;
22837;SDS011;11585;51.450;-0.240;2023-11-19T00:32:44;16.58;;;15.77;;
22837;SDS011;11585;51.450;-0.240;2023-11-19T00:35:10;16.50;;;15.70;;
22837;SDS011;11585;51.450;-0.240;2023-11-19T00:37:36;16.33;;;15.55;;
22837;SDS011;11585;51.450;-0.240;2023-11-19T00:40:01;15.50;;;14.80;;
22837;SDS011;11585;51.450;-0.240;2023-11-19T00:42:30;15.40;;;14.70;;
22837;SDS011;11585;51.450;-0.240;2023-11-19T00:44:56;16.20;;;15.45;;
22837;SDS011;11585;51.450;-0.240;2023-11-19T00:47:21;15.95;;;15.25;;
22837;SDS011;11585;51.450;-0.240;2023-11-19T00:49:47;15.80;;;15.10;;
22837;SDS011;11585;51.450;-0.240;2023-11-19T00:52:14;16.35;;;15.57;;
22837;SDS011;11585;51.450;-0.240;2023-11-19T00:54:42;16.33;;;15.52;;
22837;SDS011;11585;51.450;-0.240;2023-11-19T00:57:08;15.80;;;15.10;;
22837;SDS011;11585;51.450;-0.240;2023-11-19T00:59:34;15.80;;;15.10;;
22837;SDS011;11585;51.450;-0.240;2023-11-19T01:01:59;15.90;;;15.20;;
22837;SDS011;11585;51.450;-0.240;2023-11-19T01:04:32;16.38;;;15.57;;
22837;SDS011;11585;51.450;-0.240;2023-11-19T01:06:59;17.15;;;16.35;;
22837;SDS011;11585;51.450;-0.240;2023-11-19T01:09:24;16.65;;;15.85;;
22837;SDS011;11585;51.450;-0.240;2023-11-19T01:11:51;17.45;;;16.65;;
22837;SDS011;11585;51.450;-0.240;2023-11-19T01:14:19;16.77;;;15.98;;
22837;SDS011;11585;51.450;-0.240;2023-11-19T01:16:44;17.83;;;17.02;;
22837;SDS011;11585;51.450;-0.240;2023-11-19T01:19:10;16.98;;;16.17;;
22837;SDS011;11585;51.450;-0.240;2023-11-19T01:21:36;17.00;;;16.20;;
22837;SDS011;11585;51.450;-0.240;2023-11-19T01:24:01;16.55;;;15.75;;
22837;SDS011;11585;51.450;-0.240;2023-11-19T01:26:29;16.77;;;15.98;;
22837;SDS011;11585;51.450;-0.240;2023-11-19T01:28:54;17.30;;;16.50;;
22837;SDS011;11585;51.450;-0.240;2023-11-19T01:31:20;15.85;;;15.15;;
22837;SDS011;11585;51.450;-0.240;2023-11-19T01:33:47;16.90;;;16.10;;
22837;SDS011;11585;51.450;-0.240;2023-11-19T01:36:13;16.42;;;15.63;;
22837;SDS011;11585;51.450;-0.240;2023-11-19T01:38:39;17.50;;;16.70;;
22837;SDS011;11585;51.450;-0.240;2023-11-19T01:41:04;17.05;;;16.25;;
22837;SDS011;11585;51.450;-0.240;2023-11-19T01:43:30;17.55;;;16.75;;
22837;SDS011;11585;51.450;-0.240;2023-11-19T01:46:04;17.70;;;16.90;;
22837;SDS011;11585;51.450;-0.240;2023-11-19T01:48:31;17.40;;;16.60;;
22837;SDS011;11585;51.450;-0.240;2023-11-19T01:51:01;17.25;;;16.45;;
22837;SDS011;11585;51.450;-0.240;2023-11-19T01:53:28;16.85;;;16.05;;
22837;SDS011;11585;51.450;-0.240;2023-11-19T01:55:55;16.77;;;15.98;;
22837;SDS011;11585;51.450;-0.240;2023-11-19T01:58:22;17.50;;;16.70;;
22837;SDS011;11585;51.450;-0.240;2023-11-19T02:00:48;17.30;;;16.50;;
22837;SDS011;11585;51.450;-0.240;2023-11-19T02:06:01;17.13;;;16.33;;
22837;SDS011;11585;51.450;-0.240;2023-11-19T02:08:28;17.15;;;16.35;;
22837;SDS011;11585;51.450;-0.240;2023-11-19T02:10:55;17.23;;;16.42;;
22837;SDS011;11585;51.450;-0.240;2023-11-19T02:13:22;16.95;;;16.15;;
22837;SDS011;11585;51.450;-0.240;2023-11-19T02:15:51;17.27;;;16.48;;
22837;SDS011;11585;51.450;-0.240;2023-11-19T02:18:20;17.15;;;16.35;;
22837;SDS011;11585;51.450;-0.240;2023-11-19T02:20:50;17.42;;;16.63;;
22837;SDS011;11585;51.450;-0.240;2023-11-19T02:23:17;18.27;;;17.38;;
22837;SDS011;11585;51.450;-0.240;2023-11-19T02:25:57;17.50;;;16.70;;
22837;SDS011;11585;51.450;-0.240;2023-11-19T02:28:57;17.90;;;17.05;;
22837;SDS011;11585;51.450;-0.240;2023-11-19T02:31:23;17.70;;;16.90;;
22837;SDS011;11585;51.450;-0.240;2023-11-19T02:33:49;17.67;;;16.88;;
22837;SDS011;11585;51.450;-0.240;2023-11-19T02:36:15;18.38;;;17.48;;
22837;SDS011;11585;51.450;-0.240;2023-11-19T02:38:41;17.17;;;16.38;;
22837;SDS011;11585;51.450;-0.240;2023-11-19T02:41:07;17.23;;;16.42;;
22837;SDS011;11585;51.450;-0.240;2023-11-19T02:43:37;17.85;;;17.00;;
22837;SDS011;11585;51.450;-0.240;2023-11-19T02:46:04;17.17;;;16.38;;
22837;SDS011;11585;51.450;-0.240;2023-11-19T02:48:32;17.67;;;16.88;;
22837;SDS011;11585;51.450;-0.240;2023-11-19T02:51:00;18.23;;;17.33;;
22837;SDS011;11585;51.450;-0.240;2023-11-19T02:56:14;18.50;;;17.60;;
22837;SDS011;11585;51.450;-0.240;2023-11-19T02:58:45;17.65;;;16.85;;
22837;SDS011;11585;51.450;-0.240;2023-11-19T03:01:11;17.55;;;16.75;;
22837;SDS011;11585;51.450;-0.240;2023-11-19T03:06:20;17.40;;;16.60;;
22837;SDS011;11585;51.450;-0.240;2023-11-19T03:08:46;18.17;;;17.27;;
22837;SDS011;11585;51.450;-0.240;2023-11-19T03:11:13;17.40;;;16.60;;
22837;SDS011;11585;51.450;-0.240;2023-11-19T03:16:07;18.42;;;17.52;;
22837;SDS011;11585;51.450;-0.240;2023-11-19T03:18:33;18.33;;;17.42;;
22837;SDS011;11585;51.450;-0.240;2023-11-19T03:20:58;18.13;;;17.23;;
22837;SDS011;11585;51.450;-0.240;2023-11-19T03:23:26;18.02;;;17.13;;
22837;SDS011;11585;51.450;-0.240;2023-11-19T03:25:54;18.48;;;17.58;;
22837;SDS011;11585;51.450;-0.240;2023-11-19T03:28:20;18.52;;;17.63;;
22837;SDS011;11585;51.450;-0.240;2023-11-19T03:30:45;18.02;;;17.13;;
22837;SDS011;11585;51.450;-0.240;2023-11-19T03:33:12;18.23;;;17.33;;
22837;SDS011;11585;51.450;-0.240;2023-11-19T03:35:38;17.67;;;16.88;;
22837;SDS011;11585;51.450;-0.240;2023-11-19T03:38:06;18.50;;;17.60;;
22837;SDS011;11585;51.450;-0.240;2023-11-19T03:40:31;18.17;;;17.27;;
22837;SDS011;11585;51.450;-0.240;2023-11-19T03:42:57;17.38;;;16.58;;
22837;SDS011;11585;51.450;-0.240;2023-11-19T03:45:25;17.30;;;16.50;;
22837;SDS011;11585;51.450;-0.240;2023-11-19T03:47:51;18.27;;;17.38;;
22837;SDS011;11585;51.450;-0.240;2023-11-19T03:50:17;18.30;;;17.40;;
22837;SDS011;11585;51.450;-0.240;2023-11-19T03:52:45;18.55;;;17.65;;
22837;SDS011;11585;51.450;-0.240;2023-11-19T03:55:11;17.98;;;17.08;;
22837;SDS011;11585;51.450;-0.240;2023-11-19T03:57:37;18.42;;;17.52;;
22837;SDS011;11585;51.450;-0.240;2023-11-19T04:00:03;17.50;;;16.70;;
22837;SDS011;11585;51.450;-0.240;2023-11-19T04:02:38;17.13;;;16.33;;
22837;SDS011;11585;51.450;-0.240;2023-11-19T04:07:35;16.98;;;16.17;;
22837;SDS011;11585;51.450;-0.240;2023-11-19T04:10:01;17.65;;;16.85;;
22837;SDS011;11585;51.450;-0.240;2023-11-19T04:12:26;16.85;;;16.05;;
22837;SDS011;11585;51.450;-0.240;2023-11-19T04:14:52;17.65;;;16.85;;
22837;SDS011;11585;51.450;-0.240;2023-11-19T04:17:18;17.55;;;16.75;;
22837;SDS011;11585;51.450;-0.240;2023-11-19T04:19:43;17.17;;;16.38;;
22837;SDS011;11585;51.450;-0.240;2023-11-19T04:22:09;17.60;;;16.80;;
22837;SDS011;11585;51.450;-0.240;2023-11-19T04:24:36;18.05;;;17.15;;
22837;SDS011;11585;51.450;-0.240;2023-11-19T04:27:01;16.55;;;15.75;;
22837;SDS011;11585;51.450;-0.240;2023-11-19T04:29:29;16.75;;;15.95;;
22837;SDS011;11585;51.450;-0.240;2023-11-19T04:31:56;16.98;;;16.17;;
22837;SDS011;11585;51.450;-0.240;2023-11-19T04:36:51;16.60;;;15.80;;
22837;SDS011;11585;51.450;-0.240;2023-11-19T04:39:17;16.95;;;16.15;;
22837;SDS011;11585;51.450;-0.240;2023-11-19T04:41:50;16.73;;;15.93;;
22837;SDS011;11585;51.450;-0.240;2023-11-19T04:44:21;16.55;;;15.75;;
22837;SDS011;11585;51.450;-0.240;2023-11-19T04:46:47;16.70;;;15.90;;
22837;SDS011;11585;51.450;-0.240;2023-11-19T04:49:13;16.85;;;16.05;;
22837;SDS011;11585;51.450;-0.240;2023-11-19T04:51:42;17.20;;;16.40;;
22837;SDS011;11585;51.450;-0.240;2023-11-19T04:54:09;16.80;;;16.00;;
22837;SDS011;11585;51.450;-0.240;2023-11-19T04:56:35;16.20;;;15.40;;
22837;SDS011;11585;51.450;-0.240;2023-11-19T04:59:02;16.30;;;15.50;;
22837;SDS011;11585;51.450;-0.240;2023-11-19T05:01:29;17.60;;;16.80;;
22837;SDS011;11585;51.450;-0.240;2023-11-19T05:03:56;17.30;;;16.50;;
22837;SDS011;11585;51.450;-0.240;2023-11-19T05:06:25;16.98;;;16.17;;
22837;SDS011;11585;51.450;-0.240;2023-11-19T05:08:52;16.55;;;15.75;;
22837;SDS011;11585;51.450;-0.240;2023-11-19T05:11:17;16.48;;;15.68;;
22837;SDS011;11585;51.450;-0.240;2023-11-19T05:13:44;17.02;;;16.23;;
22837;SDS011;11585;51.450;-0.240;2023-11-19T05:16:10;16.85;;;16.05;;
22837;SDS011;11585;51.450;-0.240;2023-11-19T05:18:39;16.77;;;15.98;;
22837;SDS011;11585;51.450;-0.240;2023-11-19T05:21:05;16.70;;;15.90;;
22837;SDS011;11585;51.450;-0.240;2023-11-19T05:29:40;17.50;;;16.70;;
22837;SDS011;11585;51.450;-0.240;2023-11-19T05:32:06;17.25;;;16.45;;
22837;SDS011;11585;51.450;-0.240;2023-11-19T05:37:18;17.25;;;16.45;;
22837;SDS011;11585;51.450;-0.240;2023-11-19T05:39:44;16.95;;;16.15;;
22837;SDS011;11585;51.450;-0.240;2023-11-19T05:42:10;17.30;;;16.50;;
22837;SDS011;11585;51.450;-0.240;2023-11-19T05:44:37;17.35;;;16.55;;
22837;SDS011;11585;51.450;-0.240;2023-11-19T05:47:03;17.15;;;16.35;;
22837;SDS011;11585;51.450;-0.240;2023-11-19T05:49:29;17.35;;;16.55;;
22837;SDS011;11585;51.450;-0.240;2023-11-19T05:51:54;16.83;;;16.02;;
22837;SDS011;11585;51.450;-0.240;2023-11-19T05:54:21;17.00;;;16.20;;
22837;SDS011;11585;51.450;-0.240;2023-11-19T05:56:47;17.25;;;16.45;;
22837;SDS011;11585;51.450;-0.240;2023-11-19T05:59:14;17.10;;;16.30;;
22837;SDS011;11585;51.450;-0.240;2023-11-19T06:01:42;16.38;;;15.57;;
22837;SDS011;11585;51.450;-0.240;2023-11-19T06:07:16;18.00;;;17.10;;
22837;SDS011;11585;51.450;-0.240;2023-11-19T06:09:41;17.42;;;16.63;;
22837;SDS011;11585;51.450;-0.240;2023-11-19T06:12:07;18.65;;;17.75;;
22837;SDS011;11585;51.450;-0.240;2023-11-19T06:17:17;18.10;;;17.20;;
22837;SDS011;11585;51.450;-0.240;2023-11-19T06:19:43;18.08;;;17.17;;
22837;SDS011;11585;51.450;-0.240;2023-11-19T06:22:10;17.80;;;16.92;;
22837;SDS011;11585;51.450;-0.240;2023-11-19T06:27:21;18.17;;;17.27;;
22837;SDS011;11585;51.450;-0.240;2023-11-19T06:29:47;18.10;;;17.20;;
22837;SDS011;11585;51.450;-0.240;2023-11-19T06:32:13;18.00;;;17.10;;
22837;SDS011;11585;51.450;-0.240;2023-11-19T06:34:40;17.77;;;16.90;;
22837;SDS011;11585;51.450;-0.240;2023-11-19T06:37:06;18.03;;;17.13;;
22837;SDS011;11585;51.450;-0.240;2023-11-19T06:39:34;17.25;;;16.45;;
22837;SDS011;11585;51.450;-0.240;2023-11-19T06:42:00;17.65;;;16.83;;
22837;SDS011;11585;51.450;-0.240;2023-11-19T06:47:12;17.42;;;16.63;;
22837;SDS011;11585;51.450;-0.240;2023-11-19T06:49:38;17.75;;;16.90;;
22837;SDS011;11585;51.450;-0.240;2023-11-19T06:52:04;18.15;;;17.25;;
22837;SDS011;11585;51.450;-0.240;2023-11-19T06:54:30;16.75;;;15.95;;
22837;SDS011;11585;51.450;-0.240;2023-11-19T06:56:56;16.75;;;15.95;;
22837;SDS011;11585;51.450;-0.240;2023-11-19T06:59:22;16.48;;;15.68;;
22837;SDS011;11585;51.450;-0.240;2023-11-19T07:01:48;16.83;;;16.02;;
22837;SDS011;11585;51.450;-0.240;2023-11-19T07:04:16;16.52;;;15.73;;
22837;SDS011;11585;51.450;-0.240;2023-11-19T07:06:41;16.85;;;16.05;;
22837;SDS011;11585;51.450;-0.240;2023-11-19T07:09:07;16.75;;;15.95;;
22837;SDS011;11585;51.450;-0.240;2023-11-19T07:11:37;16.02;;;15.30;;
22837;SDS011;11585;51.450;-0.240;2023-11-19T07:14:07;16.20;;;15.40;;
22837;SDS011;11585;51.450;-0.240;2023-11-19T07:16:33;16.95;;;16.15;;
22837;SDS011;11585;51.450;-0.240;2023-11-19T07:19:00;17.27;;;16.48;;
22837;SDS011;11585;51.450;-0.240;2023-11-19T07:21:26;16.70;;;15.90;;
22837;SDS011;11585;51.450;-0.240;2023-11-19T07:23:53;16.50;;;15.70;;
22837;SDS011;11585;51.450;-0.240;2023-11-19T07:26:19;16.13;;;15.35;;
22837;SDS011;11585;51.450;-0.240;2023-11-19T07:28:45;17.08;;;16.27;;
22837;SDS011;11585;51.450;-0.240;2023-11-19T07:31:10;17.48;;;16.67;;
22837;SDS011;11585;51.450;-0.240;2023-11-19T07:33:39;16.90;;;16.10;;
22837;SDS011;11585;51.450;-0.240;2023-11-19T07:36:08;17.60;;;16.80;;
22837;SDS011;11585;51.450;-0.240;2023-11-19T07:38:34;16.50;;;15.70;;
22837;SDS011;11585;51.450;-0.240;2023-11-19T07:41:00;16.58;;;15.77;;
22837;SDS011;11585;51.450;-0.240;2023-11-19T07:46:11;16.67;;;15.88;;
22837;SDS011;11585;51.450;-0.240;2023-11-19T07:48:38;15.77;;;15.07;;
22837;SDS011;11585;51.450;-0.240;2023-11-19T07:51:04;15.60;;;14.90;;
22837;SDS011;11585;51.450;-0.240;2023-11-19T07:53:31;16.25;;;15.45;;
22837;SDS011;11585;51.450;-0.240;2023-11-19T07:55:58;16.27;;;15.48;;
22837;SDS011;11585;51.450;-0.240;2023-11-19T07:58:24;15.98;;;15.23;;
22837;SDS011;11585;51.450;-0.240;2023-11-19T08:00:50;16.38;;;15.57;;
22837;SDS011;11585;51.450;-0.240;2023-11-19T08:03:19;16.60;;;15.80;;
22837;SDS011;11585;51.450;-0.240;2023-11-19T08:05:44;16.65;;;15.85;;
22837;SDS011;11585;51.450;-0.240;2023-11-19T08:08:11;17.38;;;16.58;;
22837;SDS011;11585;51.450;-0.240;2023-11-19T08:10:37;16.65;;;15.85;;
22837;SDS011;11585;51.450;-0.240;2023-11-19T08:13:02;16.85;;;16.05;;
22837;SDS011;11585;51.450;-0.240;2023-11-19T08:15:28;16.02;;;15.27;;
22837;SDS011;11585;51.450;-0.240;2023-11-19T08:17:54;16.70;;;15.90;;
22837;SDS011;11585;51.450;-0.240;2023-11-19T08:20:19;17.80;;;16.92;;
22837;SDS011;11585;51.450;-0.240;2023-11-19T08:22:45;17.00;;;16.20;;
22837;SDS011;11585;51.450;-0.240;2023-11-19T08:27:55;17.33;;;16.52;;
22837;SDS011;11585;51.450;-0.240;2023-11-19T08:30:21;17.80;;;16.90;;
22837;SDS011;11585;51.450;-0.240;2023-11-19T08:32:46;17.38;;;16.58;;
22837;SDS011;11585;51.450;-0.240;2023-11-19T08:37:58;17.38;;;16.58;;
22837;SDS011;11585;51.450;-0.240;2023-11-19T08:40:24;17.70;;;16.80;;
22837;SDS011;11585;51.450;-0.240;2023-11-19T08:42:51;17.55;;;16.75;;
22837;SDS011;11585;51.450;-0.240;2023-11-19T08:45:17;17.25;;;16.45;;
22837;SDS011;11585;51.450;-0.240;2023-11-19T08:47:42;17.02;;;16.23;;
22837;SDS011;11585;51.450;-0.240;2023-11-19T08:50:10;17.58;;;16.77;;
22837;SDS011;11585;51.450;-0.240;2023-11-19T08:52:36;17.77;;;16.88;;
22837;SDS011;11585;51.450;-0.240;2023-11-19T08:57:46;17.23;;;16.42;;
22837;SDS011;11585;51.450;-0.240;2023-11-19T09:00:11;17.40;;;16.60;;
22837;SDS011;11585;51.450;-0.240;2023-11-19T09:02:39;16.95;;;16.15;;
22837;SDS011;11585;51.450;-0.240;2023-11-19T09:05:06;16.75;;;15.95;;
22837;SDS011;11585;51.450;-0.240;2023-11-19T09:07:33;17.58;;;16.77;;
22837;SDS011;11585;51.450;-0.240;2023-11-19T09:09:58;17.08;;;16.27;;
22837;SDS011;11585;51.450;-0.240;2023-11-19T09:12:24;16.45;;;15.65;;
22837;SDS011;11585;51.450;-0.240;2023-11-19T09:17:35;16.88;;;16.08;;
22837;SDS011;11585;51.450;-0.240;2023-11-19T09:20:01;16.83;;;16.02;;
22837;SDS011;11585;51.450;-0.240;2023-11-19T09:22:26;16.52;;;15.73;;
22837;SDS011;11585;51.450;-0.240;2023-11-19T09:27:41;16.90;;;16.10;;
22837;SDS011;11585;51.450;-0.240;2023-11-19T09:30:07;16.20;;;15.40;;
22837;SDS011;11585;51.450;-0.240;2023-11-19T09:32:33;15.40;;;14.70;;
22837;SDS011;11585;51.450;-0.240;2023-11-19T09:38:03;14.50;;;13.80;;
22837;SDS011;11585;51.450;-0.240;2023-11-19T09:40:30;13.50;;;12.90;;
22837;SDS011;11585;51.450;-0.240;2023-11-19T09:45:26;13.10;;;12.50;;
22837;SDS011;11585;51.450;-0.240;2023-11-19T09:47:53;13.57;;;12.98;;
22837;SDS011;11585;51.450;-0.240;2023-11-19T09:50:22;12.75;;;12.15;;
22837;SDS011;11585;51.450;-0.240;2023-11-19T09:52:47;12.70;;;12.10;;
22837;SDS011;11585;51.450;-0.240;2023-11-19T09:55:14;13.18;;;12.57;;
22837;SDS011;11585;51.450;-0.240;2023-11-19T09:57:40;12.85;;;12.25;;
22837;SDS011;11585;51.450;-0.240;2023-11-19T10:02:36;13.05;;;12.45;;
22837;SDS011;11585;51.450;-0.240;2023-11-19T10:07:50;12.80;;;12.20;;
22837;SDS011;11585;51.450;-0.240;2023-11-19T10:10:15;13.70;;;13.10;;
22837;SDS011;11585;51.450;-0.240;2023-11-19T10:12:44;13.00;;;12.40;;
22837;SDS011;11585;51.450;-0.240;2023-11-19T10:15:16;13.20;;;12.60;;
22837;SDS011;11585;51.450;-0.240;2023-11-19T10:17:47;13.57;;;12.98;;
22837;SDS011;11585;51.450;-0.240;2023-11-19T10:20:13;13.95;;;13.35;;
22837;SDS011;11585;51.450;-0.240;2023-11-19T10:22:39;13.23;;;12.63;;
22837;SDS011;11585;51.450;-0.240;2023-11-19T10:27:51;14.02;;;13.43;;
22837;SDS011;11585;51.450;-0.240;2023-11-19T10:30:19;14.32;;;13.63;;
22837;SDS011;11585;51.450;-0.240;2023-11-19T10:36:13;13.70;;;13.10;;
22837;SDS011;11585;51.450;-0.240;2023-11-19T10:38:39;12.85;;;12.25;;
22837;SDS011;11585;51.450;-0.240;2023-11-19T10:41:05;13.60;;;13.00;;
22837;SDS011;11585;51.450;-0.240;2023-11-19T10:43:43;13.70;;;13.10;;
22837;SDS011;11585;51.450;-0.240;2023-11-19T10:46:13;13.77;;;13.18;;
22837;SDS011;11585;51.450;-0.240;2023-11-19T10:48:39;13.68;;;13.07;;
22837;SDS011;11585;51.450;-0.240;2023-11-19T10:51:05;13.90;;;13.30;;
22837;SDS011;11585;51.450;-0.240;2023-11-19T10:53:38;13.68;;;13.07;;
22837;SDS011;11585;51.450;-0.240;2023-11-19T10:56:10;13.60;;;13.00;;
22837;SDS011;11585;51.450;-0.240;2023-11-19T10:58:37;14.55;;;13.85;;
22837;SDS011;11585;51.450;-0.240;2023-11-19T11:01:07;13.52;;;12.93;;
22837;SDS011;11585;51.450;-0.240;2023-11-19T11:03:41;13.63;;;13.02;;
22837;SDS011;11585;51.450;-0.240;2023-11-19T11:06:10;14.40;;;13.70;;
22837;SDS011;11585;51.450;-0.240;2023-11-19T11:08:38;13.95;;;13.35;;
22837;SDS011;11585;51.450;-0.240;2023-11-19T11:11:05;13.90;;;13.30;;
22837;SDS011;11585;51.450;-0.240;2023-11-19T11:16:18;14.90;;;14.20;;
22837;SDS011;11585;51.450;-0.240;2023-11-19T11:18:47;15.18;;;14.48;;
22837;SDS011;11585;51.450;-0.240;2023-11-19T11:21:15;15.52;;;14.82;;
22837;SDS011;11585;51.450;-0.240;2023-11-19T11:24:06;15.57;;;14.88;;
22837;SDS011;11585;51.450;-0.240;2023-11-19T11:32:33;15.85;;;15.15;;
22837;SDS011;11585;51.450;-0.240;2023-11-19T11:37:49;15.95;;;15.23;;
22837;SDS011;11585;51.450;-0.240;2023-11-19T11:40:21;15.70;;;15.00;;
22837;SDS011;11585;51.450;-0.240;2023-11-19T11:42:48;15.50;;;14.80;;
22837;SDS011;11585;51.450;-0.240;2023-11-19T11:45:16;15.60;;;14.90;;
22837;SDS011;11585;51.450;-0.240;2023-11-19T11:50:08;15.35;;;14.65;;
22837;SDS011;11585;51.450;-0.240;2023-11-19T11:55:27;15.52;;;14.82;;
22837;SDS011;11585;51.450;-0.240;2023-11-19T11:58:05;15.65;;;14.95;;
22837;SDS011;11585;51.450;-0.240;2023-11-19T12:05:53;16.05;;;15.25;;
22837;SDS011;11585;51.450;-0.240;2023-11-19T12:08:19;15.93;;;15.18;;
22837;SDS011;11585;51.450;-0.240;2023-11-19T12:10:50;16.65;;;15.85;;
22837;SDS011;11585;51.450;-0.240;2023-11-19T19:21:37;11.27;;;10.77;;
22837;SDS011;11585;51.450;-0.240;2023-11-19T19:24:03;11.32;;;10.82;;
22837;SDS011;11585;51.450;-0.240;2023-11-19T19:26:32;11.63;;;11.13;;
22837;SDS011;11585;51.450;-0.240;2023-11-19T19:28:59;11.80;;;11.30;;
22837;SDS011;11585;51.450;-0.240;2023-11-19T19:31:25;11.90;;;11.40;;
22837;SDS011;11585;51.450;-0.240;2023-11-19T19:33:52;12.10;;;11.60;;
22837;SDS011;11585;51.450;-0.240;2023-11-19T19:36:23;11.60;;;11.10;;
22837;SDS011;11585;51.450;-0.240;2023-11-19T19:41:40;11.85;;;11.35;;
22837;SDS011;11585;51.450;-0.240;2023-11-19T19:44:06;11.57;;;11.07;;
22837;SDS011;11585;51.450;-0.240;2023-11-19T19:46:34;11.27;;;10.77;;
22837;SDS011;11585;51.450;-0.240;2023-11-19T19:49:03;11.20;;;10.70;;
22837;SDS011;11585;51.450;-0.240;2023-11-19T19:51:30;11.50;;;11.00;;
22837;SDS011;11585;51.450;-0.240;2023-11-19T19:53:56;11.35;;;10.85;;
22837;SDS011;11585;51.450;-0.240;2023-11-19T19:56:21;11.40;;;10.90;;
22837;SDS011;11585;51.450;-0.240;2023-11-19T19:58:48;11.68;;;11.18;;
22837;SDS011;11585;51.450;-0.240;2023-11-19T20:01:14;11.68;;;11.18;;
22837;SDS011;11585;51.450;-0.240;2023-11-19T20:03:40;11.60;;;11.10;;
22837;SDS011;11585;51.450;-0.240;2023-11-19T20:06:06;11.20;;;10.70;;
22837;SDS011;11585;51.450;-0.240;2023-11-19T20:08:37;11.48;;;10.98;;
22837;SDS011;11585;51.450;-0.240;2023-11-19T20:11:03;10.10;;;9.70;;
22837;SDS011;11585;51.450;-0.240;2023-11-19T20:13:32;9.40;;;9.00;;
22837;SDS011;11585;51.450;-0.240;2023-11-19T20:15:59;8.88;;;8.48;;
22837;SDS011;11585;51.450;-0.240;2023-11-19T20:18:26;8.15;;;7.85;;
22837;SDS011;11585;51.450;-0.240;2023-11-19T20:20:54;8.00;;;7.70;;
22837;SDS011;11585;51.450;-0.240;2023-11-19T20:23:20;8.20;;;7.90;;
22837;SDS011;11585;51.450;-0.240;2023-11-19T20:25:46;8.63;;;8.23;;
22837;SDS011;11585;51.450;-0.240;2023-11-19T20:31:39;8.93;;;8.52;;
22837;SDS011;11585;51.450;-0.240;2023-11-19T20:34:06;9.00;;;8.60;;
22837;SDS011;11585;51.450;-0.240;2023-11-19T20:36:32;8.55;;;8.15;;
22837;SDS011;11585;51.450;-0.240;2023-11-19T20:38:57;7.60;;;7.30;;
22837;SDS011;11585;51.450;-0.240;2023-11-19T20:41:23;7.68;;;7.38;;
22837;SDS011;11585;51.450;-0.240;2023-11-19T20:43:49;7.55;;;7.25;;
22837;SDS011;11585;51.450;-0.240;2023-11-19T20:46:15;7.25;;;6.95;;
22837;SDS011;11585;51.450;-0.240;2023-11-19T20:48:42;7.30;;;7.00;;
22837;SDS011;11585;51.450;-0.240;2023-11-19T20:51:07;8.00;;;7.70;;
22837;SDS011;11585;51.450;-0.240;2023-11-19T20:53:33;8.50;;;8.10;;
22837;SDS011;11585;51.450;-0.240;2023-11-19T20:55:58;8.10;;;7.80;;
22837;SDS011;11585;51.450;-0.240;2023-11-19T20:58:26;7.80;;;7.50;;
22837;SDS011;11585;51.450;-0.240;2023-11-19T21:00:52;7.78;;;7.47;;
22837;SDS011;11585;51.450;-0.240;2023-11-19T21:03:18;6.80;;;6.50;;
22837;SDS011;11585;51.450;-0.240;2023-11-19T21:05:44;7.53;;;7.22;;
22837;SDS011;11585;51.450;-0.240;2023-11-19T21:08:14;7.85;;;7.55;;
22837;SDS011;11585;51.450;-0.240;2023-11-19T21:10:39;7.57;;;7.28;;
22837;SDS011;11585;51.450;-0.240;2023-11-19T21:13:05;7.60;;;7.30;;
22837;SDS011;11585;51.450;-0.240;2023-11-19T21:15:31;7.80;;;7.50;;
22837;SDS011;11585;51.450;-0.240;2023-11-19T21:17:56;7.50;;;7.20;;
22837;SDS011;11585;51.450;-0.240;2023-11-19T21:20:23;7.20;;;6.90;;
22837;SDS011;11585;51.450;-0.240;2023-11-19T21:22:49;7.10;;;6.80;;
22837;SDS011;11585;51.450;-0.240;2023-11-19T21:25:15;7.60;;;7.30;;
22837;SDS011;11585;51.450;-0.240;2023-11-19T21:27:41;7.63;;;7.32;;
22837;SDS011;11585;51.450;-0.240;2023-11-19T21:30:06;8.10;;;7.80;;
22837;SDS011;11585;51.450;-0.240;2023-11-19T21:32:32;7.72;;;7.43;;
22837;SDS011;11585;51.450;-0.240;2023-11-19T21:34:58;8.50;;;8.10;;
22837;SDS011;11585;51.450;-0.240;2023-11-19T21:37:25;8.27;;;7.93;;
22837;SDS011;11585;51.450;-0.240;2023-11-19T21:39:52;8.10;;;7.80;;
22837;SDS011;11585;51.450;-0.240;2023-11-19T21:42:18;7.90;;;7.60;;
22837;SDS011;11585;51.450;-0.240;2023-11-19T21:44:44;8.13;;;7.82;;
22837;SDS011;11585;51.450;-0.240;2023-11-19T21:47:10;7.70;;;7.40;;
22837;SDS011;11585;51.450;-0.240;2023-11-19T21:49:37;8.40;;;8.00;;
22837;SDS011;11585;51.450;-0.240;2023-11-19T21:52:05;7.70;;;7.40;;
22837;SDS011;11585;51.450;-0.240;2023-11-19T21:54:31;7.65;;;7.35;;
22837;SDS011;11585;51.450;-0.240;2023-11-19T21:56:59;7.90;;;7.60;;
22837;SDS011;11585;51.450;-0.240;2023-11-19T21:59:26;7.60;;;7.30;;
22837;SDS011;11585;51.450;-0.240;2023-11-19T22:01:52;7.80;;;7.50;;
22837;SDS011;11585;51.450;-0.240;2023-11-19T22:04:18;7.78;;;7.47;;
22837;SDS011;11585;51.450;-0.240;2023-11-19T22:06:44;7.38;;;7.07;;
22837;SDS011;11585;51.450;-0.240;2023-11-19T22:09:11;7.70;;;7.40;;
22837;SDS011;11585;51.450;-0.240;2023-11-19T22:14:04;7.90;;;7.60;;
22837;SDS011;11585;51.450;-0.240;2023-11-19T22:16:30;8.07;;;7.78;;
22837;SDS011;11585;51.450;-0.240;2023-11-19T22:18:56;7.63;;;7.32;;
22837;SDS011;11585;51.450;-0.240;2023-11-19T22:21:24;7.75;;;7.45;;
22837;SDS011;11585;51.450;-0.240;2023-11-19T22:23:52;7.60;;;7.30;;
22837;SDS011;11585;51.450;-0.240;2023-11-19T22:26:18;8.10;;;7.80;;
22837;SDS011;11585;51.450;-0.240;2023-11-19T22:28:46;8.18;;;7.88;;
22837;SDS011;11585;51.450;-0.240;2023-11-19T22:31:11;7.72;;;7.43;;
22837;SDS011;11585;51.450;-0.240;2023-11-19T22:33:37;7.80;;;7.50;;
22837;SDS011;11585;51.450;-0.240;2023-11-19T22:36:03;7.68;;;7.38;;
22837;SDS011;11585;51.450;-0.240;2023-11-19T22:38:29;7.60;;;7.30;;
22837;SDS011;11585;51.450;-0.240;2023-11-19T22:40:55;7.90;;;7.60;;
22837;SDS011;11585;51.450;-0.240;2023-11-19T22:43:21;7.93;;;7.63;;
22837;SDS011;11585;51.450;-0.240;2023-11-19T22:45:46;8.40;;;8.00;;
22837;SDS011;11585;51.450;-0.240;2023-11-19T22:48:13;8.63;;;8.23;;
22837;SDS011;11585;51.450;-0.240;2023-11-19T22:50:38;8.07;;;7.78;;
22837;SDS011;11585;51.450;-0.240;2023-11-19T22:53:04;8.50;;;8.10;;
22837;SDS011;11585;51.450;-0.240;2023-11-19T22:55:30;7.80;;;7.50;;
22837;SDS011;11585;51.450;-0.240;2023-11-19T22:57:57;8.68;;;8.27;;
22837;SDS011;11585;51.450;-0.240;2023-11-19T23:00:22;8.60;;;8.20;;
22837;SDS011;11585;51.450;-0.240;2023-11-19T23:02:57;8.15;;;7.85;;
22837;SDS011;11585;51.450;-0.240;2023-11-19T23:05:24;8.50;;;8.10;;